createdAt,value
2018-07-14T00:00:10.040Z,18.30
2018-07-14T00:02:42.616Z,18.30
2018-07-14T00:05:15.042Z,18.30
2018-07-14T00:07:48.905Z,18.30
2018-07-14T00:10:21.647Z,18.30
2018-07-14T00:12:54.056Z,18.30
2018-07-14T00:15:26.577Z,18.30
2018-07-14T00:17:59.016Z,18.20
2018-07-14T00:20:31.486Z,18.20
2018-07-14T00:23:03.892Z,18.20
2018-07-14T00:25:42.172Z,18.30
2018-07-14T00:28:14.715Z,18.20
2018-07-14T00:30:47.127Z,18.10
2018-07-14T00:33:19.658Z,18.10
2018-07-14T00:35:52.035Z,18.00
2018-07-14T00:38:25.001Z,18.00
2018-07-14T00:40:57.416Z,17.90
2018-07-14T00:43:29.920Z,17.80
2018-07-14T00:46:02.820Z,17.80
2018-07-14T00:48:39.234Z,17.70
2018-07-14T00:51:11.661Z,17.70
2018-07-14T00:53:44.075Z,17.70
2018-07-14T00:56:16.539Z,17.70
2018-07-14T00:58:48.991Z,17.70
2018-07-14T01:01:21.418Z,17.80
2018-07-14T01:03:53.964Z,17.80
2018-07-14T01:06:26.388Z,17.80
2018-07-14T01:08:59.954Z,17.70
2018-07-14T01:11:32.330Z,17.70
2018-07-14T01:14:04.990Z,17.70
2018-07-14T01:16:37.457Z,17.70
2018-07-14T01:19:10.161Z,17.70
2018-07-14T01:21:42.546Z,17.70
2018-07-14T01:24:15.377Z,17.60
2018-07-14T01:26:47.852Z,17.70
2018-07-14T01:29:20.422Z,17.60
2018-07-14T01:34:25.301Z,17.60
2018-07-14T01:36:57.822Z,17.60
2018-07-14T01:39:30.593Z,17.60
2018-07-14T01:42:03.127Z,17.60
2018-07-14T01:44:35.688Z,17.50
2018-07-14T01:47:08.355Z,17.50
2018-07-14T01:49:40.921Z,17.50
2018-07-14T01:52:13.464Z,17.50
2018-07-14T01:54:45.959Z,17.50
2018-07-14T01:57:18.418Z,17.40
2018-07-14T01:59:50.901Z,17.40
2018-07-14T02:02:23.404Z,17.30
2018-07-14T02:04:55.957Z,17.30
2018-07-14T02:07:28.681Z,17.30
2018-07-14T02:10:01.270Z,17.30
2018-07-14T02:12:33.761Z,17.30
2018-07-14T02:15:06.519Z,17.20
2018-07-14T02:17:39.111Z,17.20
2018-07-14T02:20:11.669Z,17.20
2018-07-14T02:22:44.119Z,17.20
2018-07-14T02:25:16.554Z,17.20
2018-07-14T02:27:48.980Z,17.20
2018-07-14T02:30:21.463Z,17.20
2018-07-14T02:32:53.933Z,17.20
2018-07-14T02:35:26.435Z,17.10
2018-07-14T02:37:58.858Z,17.10
2018-07-14T02:40:31.353Z,17.10
2018-07-14T02:43:04.816Z,17.10
2018-07-14T02:45:37.280Z,17.10
2018-07-14T02:48:10.253Z,17.10
2018-07-14T02:50:42.817Z,17.10
2018-07-14T02:53:15.307Z,17.10
2018-07-14T02:58:20.275Z,17.00
2018-07-14T03:00:52.708Z,17.00
2018-07-14T03:03:25.197Z,16.90
2018-07-14T03:05:57.603Z,16.90
2018-07-14T03:08:30.052Z,16.90
2018-07-14T03:11:02.964Z,16.80
2018-07-14T03:13:35.439Z,16.80
2018-07-14T03:18:40.268Z,16.80
2018-07-14T03:21:12.784Z,16.80
2018-07-14T03:23:45.192Z,16.80
2018-07-14T03:28:50.129Z,16.70
2018-07-14T03:31:22.591Z,16.60
2018-07-14T03:33:55.015Z,16.70
2018-07-14T03:36:27.517Z,16.60
2018-07-14T03:38:59.914Z,16.60
2018-07-14T03:41:32.489Z,16.50
2018-07-14T03:44:04.900Z,16.50
2018-07-14T03:46:37.311Z,16.40
2018-07-14T03:49:09.750Z,16.30
2018-07-14T03:51:42.266Z,16.30
2018-07-14T03:54:14.673Z,16.30
2018-07-14T03:56:47.251Z,16.30
2018-07-14T03:59:19.662Z,16.30
2018-07-14T04:01:52.311Z,16.20
2018-07-14T04:04:24.810Z,16.20
2018-07-14T04:06:57.240Z,16.10
2018-07-14T04:09:29.724Z,16.20
2018-07-14T04:12:02.308Z,16.10
2018-07-14T04:14:34.959Z,16.10
2018-07-14T04:17:07.404Z,16.10
2018-07-14T04:19:39.913Z,16.10
2018-07-14T04:22:12.409Z,16.00
2018-07-14T04:24:44.814Z,16.00
2018-07-14T04:27:17.429Z,16.00
2018-07-14T04:29:50.008Z,16.00
2018-07-14T04:32:23.028Z,16.00
2018-07-14T04:34:55.731Z,16.00
2018-07-14T04:37:28.309Z,16.00
2018-07-14T04:42:33.377Z,16.00
2018-07-14T04:45:05.871Z,16.00
2018-07-14T04:47:38.330Z,16.00
2018-07-14T04:50:10.942Z,16.10
2018-07-14T04:52:43.510Z,16.00
2018-07-14T04:55:15.918Z,16.10
2018-07-14T04:57:48.370Z,16.10
2018-07-14T05:00:21.085Z,16.10
2018-07-14T05:02:53.820Z,16.10
2018-07-14T05:05:26.252Z,16.10
2018-07-14T05:07:58.750Z,16.20
2018-07-14T05:10:31.346Z,16.20
2018-07-14T05:13:04.289Z,16.20
2018-07-14T05:15:36.964Z,16.20
2018-07-14T05:18:09.728Z,16.30
2018-07-14T05:20:42.385Z,16.20
2018-07-14T05:23:15.027Z,16.20
2018-07-14T05:25:47.750Z,16.20
2018-07-14T05:28:20.259Z,16.30
2018-07-14T05:30:52.753Z,16.30
2018-07-14T05:33:26.678Z,16.30
2018-07-14T05:35:59.371Z,16.30
2018-07-14T05:38:31.804Z,16.20
2018-07-14T05:41:04.312Z,16.30
2018-07-14T05:43:36.896Z,16.40
2018-07-14T05:46:09.395Z,16.40
2018-07-14T05:48:41.997Z,16.50
2018-07-14T05:51:14.476Z,16.40
2018-07-14T05:53:46.952Z,16.60
2018-07-14T05:56:19.370Z,16.70
2018-07-14T05:58:51.970Z,16.70
2018-07-14T06:03:56.879Z,16.80
2018-07-14T06:06:29.680Z,16.80
2018-07-14T06:09:02.203Z,16.90
2018-07-14T06:11:35.170Z,17.00
2018-07-14T06:14:07.700Z,17.10
2018-07-14T06:16:40.313Z,16.90
2018-07-14T06:19:12.771Z,17.00
2018-07-14T06:21:45.447Z,17.10
2018-07-14T06:24:19.084Z,17.20
2018-07-14T06:26:52.648Z,17.30
2018-07-14T06:29:25.405Z,17.30
2018-07-14T06:31:58.276Z,17.50
2018-07-14T06:34:30.879Z,17.50
2018-07-14T06:37:03.458Z,17.40
2018-07-14T06:39:36.177Z,17.40
2018-07-14T06:42:08.950Z,17.40
2018-07-14T06:44:41.481Z,17.30
2018-07-14T06:47:13.933Z,17.20
2018-07-14T06:49:46.453Z,17.40
2018-07-14T06:52:18.890Z,17.30
2018-07-14T06:54:52.101Z,17.20
2018-07-14T06:57:24.510Z,17.30
2018-07-14T06:59:56.998Z,17.10
2018-07-14T07:02:29.444Z,17.20
2018-07-14T07:05:01.907Z,17.20
2018-07-14T07:07:34.580Z,17.20
2018-07-14T07:10:07.418Z,17.30
2018-07-14T07:12:39.927Z,17.40
2018-07-14T07:15:12.548Z,17.40
2018-07-14T07:17:45.101Z,17.40
2018-07-14T07:20:17.981Z,17.30
2018-07-14T07:22:50.860Z,17.30
2018-07-14T07:25:23.675Z,17.40
2018-07-14T07:27:56.099Z,17.40
2018-07-14T07:30:28.561Z,17.40
2018-07-14T07:33:02.182Z,17.40
2018-07-14T07:35:35.169Z,17.50
2018-07-14T07:38:07.649Z,17.50
2018-07-14T07:40:40.329Z,17.70
2018-07-14T07:43:12.956Z,17.60
2018-07-14T07:45:45.799Z,17.60
2018-07-14T07:48:18.595Z,17.60
2018-07-14T07:50:51.580Z,17.60
2018-07-14T07:53:24.048Z,17.80
2018-07-14T07:55:56.787Z,17.90
2018-07-14T07:58:29.252Z,17.80
2018-07-14T08:01:01.825Z,18.00
2018-07-14T08:03:34.307Z,18.00
2018-07-14T08:06:07.033Z,18.20
2018-07-14T08:08:39.484Z,18.20
2018-07-14T08:11:12.270Z,18.00
2018-07-14T08:13:44.905Z,18.00
2018-07-14T08:16:17.421Z,18.20
2018-07-14T08:18:49.823Z,18.20
2018-07-14T08:21:22.303Z,18.20
2018-07-14T08:23:54.842Z,18.00
2018-07-14T08:26:27.301Z,18.00
2018-07-14T08:29:00.003Z,18.00
2018-07-14T08:31:32.607Z,18.20
2018-07-14T08:34:05.472Z,18.20
2018-07-14T08:36:41.905Z,18.30
2018-07-14T08:39:14.372Z,18.30
2018-07-14T08:41:52.025Z,18.10
2018-07-14T08:44:24.503Z,18.20
2018-07-14T08:46:56.991Z,18.20
2018-07-14T08:49:29.679Z,18.20
2018-07-14T08:52:02.159Z,18.30
2018-07-14T08:54:34.996Z,18.20
2018-07-14T08:57:07.427Z,18.40
2018-07-14T08:59:39.842Z,18.40
2018-07-14T09:02:12.324Z,18.30
2018-07-14T09:04:44.744Z,18.40
2018-07-14T09:07:17.187Z,18.40
2018-07-14T09:09:49.639Z,18.40
2018-07-14T09:12:22.319Z,18.50
2018-07-14T09:14:54.816Z,18.40
2018-07-14T09:17:27.351Z,18.60
2018-07-14T09:19:59.764Z,18.60
2018-07-14T09:22:32.250Z,18.50
2018-07-14T09:25:05.078Z,18.80
2018-07-14T09:27:37.676Z,18.60
2018-07-14T09:30:10.231Z,18.60
2018-07-14T09:32:42.810Z,18.60
2018-07-14T09:35:15.144Z,18.70
2018-07-14T09:37:47.850Z,18.80
2018-07-14T09:40:20.257Z,18.90
2018-07-14T09:47:57.758Z,19.10
2018-07-14T09:50:30.231Z,19.00
2018-07-14T09:53:02.844Z,19.00
2018-07-14T09:55:35.285Z,19.20
2018-07-14T09:58:07.866Z,19.20
2018-07-14T10:03:19.322Z,19.60
2018-07-14T10:05:51.761Z,19.60
2018-07-14T10:08:24.154Z,19.60
2018-07-14T10:10:57.247Z,19.60
2018-07-14T10:13:29.654Z,19.70
2018-07-14T10:16:02.312Z,20.00
2018-07-14T10:18:34.839Z,20.20
2018-07-14T10:21:07.274Z,20.10
2018-07-14T10:23:39.660Z,20.00
2018-07-14T10:26:12.130Z,20.00
2018-07-14T10:28:44.549Z,20.20
2018-07-14T10:31:17.012Z,20.30
2018-07-14T10:33:49.530Z,20.20
2018-07-14T10:36:22.151Z,20.30
2018-07-14T10:38:54.805Z,20.40
2018-07-14T10:41:27.242Z,20.60
2018-07-14T10:43:59.678Z,20.50
2018-07-14T10:46:32.169Z,20.50
2018-07-14T10:49:04.568Z,20.70
2018-07-14T10:51:37.086Z,21.00
2018-07-14T10:54:09.466Z,21.10
2018-07-14T10:56:41.958Z,21.00
2018-07-14T10:59:14.726Z,20.90
2018-07-14T11:01:47.254Z,21.00
2018-07-14T11:06:52.167Z,21.00
2018-07-14T11:09:24.591Z,21.10
2018-07-14T11:11:57.046Z,20.90
2018-07-14T11:14:29.459Z,21.10
2018-07-14T11:17:01.983Z,21.10
2018-07-14T11:19:34.399Z,21.20
2018-07-14T11:22:07.237Z,21.40
2018-07-14T11:24:39.649Z,21.40
2018-07-14T11:27:12.421Z,21.40
2018-07-14T11:29:44.888Z,21.50
2018-07-14T11:32:17.407Z,21.40
2018-07-14T11:34:49.852Z,21.70
2018-07-14T11:37:22.342Z,21.90
2018-07-14T11:39:56.911Z,22.00
2018-07-14T11:42:30.204Z,22.00
2018-07-14T11:45:02.774Z,22.00
2018-07-14T11:47:35.345Z,21.50
2018-07-14T11:50:07.978Z,21.60
2018-07-14T11:52:40.428Z,21.80
2018-07-14T11:55:12.881Z,22.00
2018-07-14T11:57:45.274Z,22.10
2018-07-14T12:00:17.846Z,22.00
2018-07-14T12:02:50.357Z,21.90
2018-07-14T12:05:22.822Z,22.00
2018-07-14T12:07:55.384Z,21.90
2018-07-14T12:10:29.155Z,22.10
2018-07-14T12:13:01.735Z,22.20
2018-07-14T12:15:34.134Z,22.40
2018-07-14T12:18:06.676Z,22.10
2018-07-14T12:20:39.097Z,22.20
2018-07-14T12:23:11.731Z,22.20
2018-07-14T12:25:44.182Z,22.30
2018-07-14T12:28:16.861Z,22.10
2018-07-14T12:30:49.366Z,22.30
2018-07-14T12:33:21.787Z,22.30
2018-07-14T12:35:54.205Z,22.00
2018-07-14T12:38:26.623Z,22.10
2018-07-14T12:40:59.103Z,22.50
2018-07-14T12:43:31.774Z,22.40
2018-07-14T12:46:04.460Z,22.40
2018-07-14T12:48:36.936Z,22.60
2018-07-14T12:51:09.441Z,22.50
2018-07-14T12:53:42.000Z,22.70
2018-07-14T12:56:14.502Z,22.70
2018-07-14T12:58:47.586Z,22.70
2018-07-14T13:01:20.076Z,22.70
2018-07-14T13:03:52.510Z,23.10
2018-07-14T13:06:25.007Z,23.10
2018-07-14T13:08:57.489Z,23.10
2018-07-14T13:11:30.006Z,22.80
2018-07-14T13:14:02.505Z,23.00
2018-07-14T13:16:35.558Z,22.90
2018-07-14T13:19:08.247Z,22.80
2018-07-14T13:21:40.799Z,22.70
2018-07-14T13:24:13.567Z,22.50
2018-07-14T13:29:18.470Z,23.00
2018-07-14T13:31:51.260Z,22.80
2018-07-14T13:34:24.198Z,22.50
2018-07-14T13:36:56.707Z,22.50
2018-07-14T13:39:29.172Z,22.50
2018-07-14T13:42:01.966Z,22.60
2018-07-14T13:44:34.387Z,22.50
2018-07-14T13:47:06.864Z,22.60
2018-07-14T13:49:39.466Z,22.70
2018-07-14T13:52:12.151Z,22.70
2018-07-14T13:54:44.931Z,22.50
2018-07-14T13:57:17.342Z,22.70
2018-07-14T13:59:49.845Z,23.00
2018-07-14T14:02:22.319Z,22.70
2018-07-14T14:04:54.843Z,22.80
2018-07-14T14:07:27.301Z,22.90
2018-07-14T14:09:59.876Z,22.70
2018-07-14T14:12:32.648Z,22.80
2018-07-14T14:15:05.655Z,22.70
2018-07-14T14:17:38.164Z,22.80
2018-07-14T14:20:10.777Z,22.80
2018-07-14T14:25:18.443Z,22.70
2018-07-14T14:27:51.558Z,22.80
2018-07-14T14:30:24.241Z,22.80
2018-07-14T14:32:57.480Z,22.80
2018-07-14T14:35:30.492Z,23.00
2018-07-14T14:38:03.221Z,23.10
2018-07-14T14:40:36.047Z,22.80
2018-07-14T14:43:08.788Z,22.60
2018-07-14T14:45:41.582Z,22.90
2018-07-14T14:48:15.165Z,22.90
2018-07-14T14:50:48.097Z,22.90
2018-07-14T14:53:21.002Z,22.80
2018-07-14T14:55:53.664Z,22.70
2018-07-14T14:58:26.160Z,22.70
2018-07-14T15:00:58.783Z,22.60
2018-07-14T15:03:31.418Z,22.70
2018-07-14T15:06:04.515Z,22.70
2018-07-14T15:08:37.009Z,22.90
2018-07-14T15:11:09.676Z,22.70
2018-07-14T15:13:42.469Z,22.70
2018-07-14T15:16:15.192Z,22.90
2018-07-14T15:18:47.680Z,22.80
2018-07-14T15:21:20.329Z,22.90
2018-07-14T15:23:52.891Z,22.80
2018-07-14T15:26:25.748Z,22.80
2018-07-14T15:28:58.437Z,22.80
2018-07-14T15:31:31.042Z,22.70
2018-07-14T15:34:03.876Z,22.70
2018-07-14T15:36:47.768Z,22.80
2018-07-14T15:39:20.649Z,22.80
2018-07-14T15:41:53.267Z,22.70
2018-07-14T15:44:26.163Z,22.70
2018-07-14T15:46:58.853Z,22.60
2018-07-14T15:49:32.135Z,22.80
2018-07-14T15:52:05.234Z,22.70
2018-07-14T15:54:38.181Z,22.60
2018-07-14T15:57:11.018Z,22.80
2018-07-14T15:59:43.986Z,22.80
2018-07-14T16:02:17.384Z,22.90
2018-07-14T16:04:50.648Z,22.80
2018-07-14T16:07:23.292Z,22.90
2018-07-14T16:09:56.238Z,22.90
2018-07-14T16:12:28.707Z,23.00
2018-07-14T16:15:01.471Z,23.00
2018-07-14T16:17:34.469Z,23.00
2018-07-14T16:20:09.437Z,22.90
2018-07-14T16:22:42.220Z,23.00
2018-07-14T16:25:15.108Z,23.00
2018-07-14T16:27:48.025Z,22.90
2018-07-14T16:30:20.837Z,22.70
2018-07-14T16:32:53.884Z,22.80
2018-07-14T16:35:26.657Z,23.00
2018-07-14T16:37:59.430Z,23.00
2018-07-14T16:40:32.051Z,23.00
2018-07-14T16:43:04.908Z,23.00
2018-07-14T16:45:38.105Z,22.80
2018-07-14T16:48:10.938Z,22.80
2018-07-14T16:50:43.727Z,22.70
2018-07-14T16:53:16.493Z,22.60
2018-07-14T16:55:49.265Z,22.60
2018-07-14T16:58:30.087Z,22.60
2018-07-14T17:01:10.038Z,22.50
2018-07-14T17:03:43.469Z,22.40
2018-07-14T17:06:16.339Z,22.40
2018-07-14T17:08:49.036Z,22.60
2018-07-14T17:11:22.119Z,22.50
2018-07-14T17:13:55.000Z,22.40
2018-07-14T17:16:28.268Z,22.40
2018-07-14T17:19:01.006Z,22.30
2018-07-14T17:21:34.019Z,22.30
2018-07-14T17:24:07.079Z,22.30
2018-07-14T17:26:39.849Z,22.10
2018-07-14T17:29:12.612Z,22.10
2018-07-14T17:31:45.574Z,22.20
2018-07-14T17:34:18.659Z,22.20
2018-07-14T17:36:52.080Z,22.20
2018-07-14T17:39:25.317Z,22.10
2018-07-14T17:41:58.365Z,22.00
2018-07-14T17:44:31.372Z,22.00
2018-07-14T17:47:04.421Z,21.90
2018-07-14T17:49:37.304Z,21.70
2018-07-14T17:52:10.261Z,21.70
2018-07-14T17:54:43.570Z,21.70
2018-07-14T17:57:16.552Z,21.70
2018-07-14T17:59:49.291Z,21.60
2018-07-14T18:02:22.312Z,21.60
2018-07-14T18:04:55.309Z,21.50
2018-07-14T18:07:28.780Z,21.60
2018-07-14T18:10:03.205Z,21.40
2018-07-14T18:12:36.682Z,21.40
2018-07-14T18:15:10.751Z,21.30
2018-07-14T18:17:43.754Z,21.30
2018-07-14T18:20:17.402Z,21.20
2018-07-14T18:22:50.214Z,21.10
2018-07-14T18:25:23.273Z,21.10
2018-07-14T18:27:57.220Z,21.10
2018-07-14T18:30:29.976Z,21.10
2018-07-14T18:33:03.684Z,21.00
2018-07-14T18:35:37.662Z,21.10
2018-07-14T18:38:10.446Z,20.90
2018-07-14T18:40:44.490Z,20.80
2018-07-14T18:43:17.422Z,20.80
2018-07-14T18:45:50.782Z,20.70
2018-07-14T18:50:58.234Z,20.60
2018-07-14T18:53:31.845Z,20.40
2018-07-14T18:56:05.024Z,20.40
2018-07-14T18:58:38.460Z,20.40
2018-07-14T19:01:11.497Z,20.30
2018-07-14T19:03:44.896Z,20.20
2018-07-14T19:06:18.201Z,20.10
2018-07-14T19:08:51.503Z,20.10
2018-07-14T19:11:24.637Z,20.10
2018-07-14T19:13:57.482Z,20.00
2018-07-14T19:16:30.543Z,19.90
2018-07-14T19:19:03.250Z,19.80
2018-07-14T19:21:36.454Z,19.80
2018-07-14T20:12:35.349Z,19.00
2018-07-14T20:15:08.430Z,18.60
2018-07-14T20:17:41.314Z,18.50
2018-07-14T20:20:14.000Z,18.50
2018-07-14T20:22:46.939Z,18.40
2018-07-14T20:27:53.980Z,18.30
2018-07-14T20:30:50.276Z,18.30
2018-07-14T20:33:24.649Z,18.20
2018-07-14T20:42:20.607Z,18.10
2018-07-14T20:44:54.254Z,18.20
2018-07-14T20:47:26.726Z,18.00
2018-07-14T20:53:10.264Z,18.00
2018-07-14T20:55:43.143Z,17.80
2018-07-14T20:58:16.120Z,17.80
2018-07-14T21:00:49.270Z,17.80
2018-07-14T21:03:22.236Z,17.70
2018-07-14T21:05:56.059Z,17.70
2018-07-14T21:08:28.814Z,17.70
2018-07-14T21:13:34.621Z,17.60
2018-07-14T21:16:07.441Z,17.60
2018-07-14T21:18:39.970Z,17.50
2018-07-14T21:21:13.010Z,17.50
2018-07-14T21:23:45.837Z,17.60
2018-07-14T21:26:18.602Z,17.50
2018-07-14T21:28:51.305Z,17.40
2018-07-14T21:31:23.998Z,17.40
2018-07-14T21:33:56.676Z,17.40
2018-07-14T21:36:29.604Z,17.20
2018-07-14T21:39:04.700Z,17.20
2018-07-14T21:41:37.663Z,17.20
2018-07-14T21:44:13.267Z,17.10
2018-07-14T21:46:46.133Z,17.10
2018-07-14T21:49:18.781Z,17.00
2018-07-14T21:51:51.448Z,17.00
2018-07-14T21:54:24.300Z,17.00
2018-07-14T21:56:56.886Z,17.00
2018-07-14T21:59:29.712Z,17.00
2018-07-14T22:02:06.246Z,16.90
2018-07-14T22:04:39.090Z,16.90
2018-07-14T22:07:11.922Z,17.00
2018-07-14T22:09:44.786Z,16.90
2018-07-14T22:12:17.401Z,16.90
2018-07-14T22:14:50.418Z,16.80
2018-07-14T22:17:23.820Z,16.80
2018-07-14T22:19:56.663Z,16.80
2018-07-14T22:22:29.948Z,16.80
2018-07-14T22:27:37.533Z,16.80
2018-07-14T22:30:10.582Z,16.80
2018-07-14T22:32:45.951Z,16.60
2018-07-14T22:35:19.117Z,16.60
2018-07-14T22:37:53.090Z,16.60
2018-07-14T22:40:28.084Z,16.60
2018-07-14T22:43:01.675Z,16.60
2018-07-14T22:45:35.517Z,16.60
2018-07-14T22:48:08.331Z,16.60
2018-07-14T22:50:41.465Z,16.60
2018-07-14T22:53:14.545Z,16.50
2018-07-14T22:55:47.634Z,16.40
2018-07-14T22:58:21.278Z,16.50
2018-07-14T23:00:54.264Z,16.50
2018-07-14T23:03:28.226Z,16.50
2018-07-14T23:06:01.534Z,16.50
2018-07-14T23:08:34.820Z,16.40
2018-07-14T23:11:08.737Z,16.40
2018-07-14T23:13:41.340Z,16.40
2018-07-14T23:16:15.509Z,16.40
2018-07-14T23:18:50.859Z,16.40
2018-07-14T23:21:23.576Z,16.40
2018-07-14T23:23:57.199Z,16.30
2018-07-14T23:26:30.754Z,16.30
2018-07-14T23:29:03.734Z,16.30
2018-07-14T23:31:36.385Z,16.30
2018-07-14T23:34:08.954Z,16.20
2018-07-14T23:36:41.386Z,16.20
2018-07-14T23:41:48.765Z,16.00
2018-07-14T23:44:21.530Z,16.10
2018-07-14T23:46:54.225Z,16.10
2018-07-14T23:49:26.904Z,16.10
2018-07-14T23:51:59.459Z,16.10
2018-07-14T23:54:32.126Z,16.10
2018-07-14T23:57:05.831Z,16.10
2018-07-14T23:59:38.899Z,16.10
